Villa Cisneros, Western Sahara

10:55 PM WET en Febrero 20, 2017 (GMT +0000)
Dakhla Villa Cisneros | | Change Station

Alt 36 ft 23.72 °N, 15.93 °W | Updated 1 hour ago

Despejado
Despejado
63 ° F
Sensación térmica 63 ° F
N
16
Viento Variable Viento desde NNE

Hoy
Alta -- | Baja -- ° F
--% Posibilidad de precipitaciones
Ayer
Alta -- | Baja -- ° F
Precip. -- pul
Presión 30.04 pul
Visibilidad -9999.0 Millas
Nubes
Punto de rocío 54 ° F
Humedad 72%
Precipitaciones 0.00 pul
Espesor de la nieve No disponible.
7:32 AM 7:02 PM
Creciente menguante, 30% visible
METAR GMMH 202100Z 02014KT CAVOK 17/12 Q1017 NOSIG
Presión 30.04 pul
Visibilidad -9999.0 Millas
Nubes
Punto de rocío 54 ° F
Humedad 72%
Precipitaciones 0.00 pul
Espesor de la nieve No disponible.
7:32 AM 7:02 PM
Creciente menguante, 30% visible
METAR GMMH 202100Z 02014KT CAVOK 17/12 Q1017 NOSIG

Get Your Daily Forecast Email!

Thanks for signing up!

Be on the lookout for a verification email in your inbox.

You'll start receiving the daily forecast at 8 AM.

×

10-Day Weather Forecast

No radar image for this location.
×

Almanac

Astronomía

Feb. 20, 2017 Salida Puesta
Hora real
Crepúsculo civil
Crepúsculo náutico
Crepúsculo astronómico
Luna
Horas de luz
Horas de luz
Tomorrow will be .
, % of the Moon is Illuminated

Extremos de hoy

Máximos del país Bajas del país

Community

WunderPhotos

Upload Photos

1,962,540 ¡fotos cargadas!

WunderBlog® & News

Nearby

Calidad del aire

  Calidad del aire Índice AQ Contaminante
Not available.

Grosos de nieve

Estación Profundido Altura

Actividad de terremotos

Ciudad Distance Mag. Tiempo y dato
Magnitud mínima muestra es 2,5.

Temperaturas de aguas costeras

Lugar Temperatura

Stations

Estaciones meteorológicas cercanas

Ubicación de la estación Temp. Vientos helados Punto de rocío Humedad Viento Precip. Alt Actualizado Tipo